Pagina principale
METAR-TAF:

METAR-TAF

Aeroporti :

Alice Springs, Australia

latitudine: 23-48S, longitudine: 133-53E, altezza: 545 m

Osservazione

Il bollettino è stato emesso 16 minuti fa, alle 11:30 UTC
Vento 7 kt da est
Temperature 29°C
Umidità 20%
Pressione 1016 hPa
Visibilità 10 km o più

METAR: YBAS 191130Z AUTO 10007KT 9999 // NCD 29/04 Q1016 RF00.0/000.0

Ora: 21:16 (11:46 UTC)

Previsione

Il bollettino è stato emesso 37 minuti fa, alle 11:09 UTC
Previsione valida dal 19 alle 12 UTC al 20 alle 12 UTC
Vento 8 kt da est
Visibilità 10 km o più
nessuna nube inferiore a 1500 m e nessun cumulonembo
A partire da 19 alle 1600 UTC
Vento 5 kt da nord/nord-ovest
Visibilità 10 km o più
nessuna nube inferiore a 1500 m e nessun cumulonembo
A partire da 19 alle 2300 UTC
Vento 8 kt da est
Visibilità 10 km o più
nessuna nube inferiore a 1500 m e nessun cumulonembo

TAF: YBAS 191109Z 1912/2012 08008KT CAVOK FM191600 33005KT CAVOK FM192300 08008KT CAVOK

Osservazioni e previsioni meteorologiche di più di 4000 aeroporti (messaggi METAR e TAF).

Le stazioni disponibili sono rappresentate dai dischi gialli e rossi sulla carta.

Puntare il mouse per vedere il nome della stazione.

Clicca sopra per visualizzare le osservazioni e previsioni meteorologiche.

Per cambiare la mappa : fare clic sui pulsanti verdi con una croce nera per ingrandire, il pulsante verde con un trattino per diminuire, o sulla freccia verde per le mappe adiacenti.


METAR-TAF: